sensor_id;sensor_type;location;lat;lon;timestamp;pressure;altitude;pressure_sealevel;temperature;humidity
80678;BME280;70042;52.494;5.502;2023-08-08T00:02:07;101490.59;;;20.71;61.20
80678;BME280;70042;52.494;5.502;2023-08-08T00:04:33;101490.59;;;20.71;61.20
80678;BME280;70042;52.494;5.502;2023-08-08T00:06:58;101487.09;;;20.70;61.26
80678;BME280;70042;52.494;5.502;2023-08-08T00:09:24;101484.44;;;20.70;61.34
80678;BME280;70042;52.494;5.502;2023-08-08T00:11:49;101488.00;;;20.69;61.46
80678;BME280;70042;52.494;5.502;2023-08-08T00:14:15;101488.00;;;20.69;61.44
80678;BME280;70042;52.494;5.502;2023-08-08T00:16:40;101487.19;;;20.67;61.22
80678;BME280;70042;52.494;5.502;2023-08-08T00:19:05;101484.53;;;20.67;61.48
80678;BME280;70042;52.494;5.502;2023-08-08T00:21:31;101480.13;;;20.66;61.46
80678;BME280;70042;52.494;5.502;2023-08-08T00:23:56;101471.31;;;20.64;61.51
80678;BME280;70042;52.494;5.502;2023-08-08T00:26:21;101470.41;;;20.65;61.62
80678;BME280;70042;52.494;5.502;2023-08-08T00:28:47;101467.75;;;20.65;61.63
80678;BME280;70042;52.494;5.502;2023-08-08T00:31:12;101467.75;;;20.65;61.63
80678;BME280;70042;52.494;5.502;2023-08-08T00:33:38;101459.78;;;20.65;61.86
80678;BME280;70042;52.494;5.502;2023-08-08T00:36:03;101457.13;;;20.65;61.50
80678;BME280;70042;52.494;5.502;2023-08-08T00:38:29;101460.69;;;20.64;61.64
80678;BME280;70042;52.494;5.502;2023-08-08T00:40:54;101458.03;;;20.64;61.71
80678;BME280;70042;52.494;5.502;2023-08-08T00:43:19;101454.56;;;20.62;62.00
80678;BME280;70042;52.494;5.502;2023-08-08T00:45:45;101456.34;;;20.62;61.77
80678;BME280;70042;52.494;5.502;2023-08-08T00:48:11;101452.81;;;20.61;61.75
80678;BME280;70042;52.494;5.502;2023-08-08T00:50:37;101457.28;;;20.61;61.75
80678;BME280;70042;52.494;5.502;2023-08-08T00:53:03;101463.47;;;20.60;61.67
80678;BME280;70042;52.494;5.502;2023-08-08T00:55:29;101456.41;;;20.60;61.47
80678;BME280;70042;52.494;5.502;2023-08-08T00:57:55;101460.81;;;20.60;61.88
80678;BME280;70042;52.494;5.502;2023-08-08T01:00:21;101458.16;;;20.60;61.79
80678;BME280;70042;52.494;5.502;2023-08-08T01:02:46;101455.50;;;20.60;61.79
80678;BME280;70042;52.494;5.502;2023-08-08T01:05:12;101460.75;;;20.61;61.79
80678;BME280;70042;52.494;5.502;2023-08-08T01:08:02;101457.28;;;20.61;61.79
80678;BME280;70042;52.494;5.502;2023-08-08T01:10:33;101458.09;;;20.61;61.70
80678;BME280;70042;52.494;5.502;2023-08-08T01:13:05;101467.00;;;20.60;61.87
80678;BME280;70042;52.494;5.502;2023-08-08T01:15:32;101455.50;;;20.60;62.15
80678;BME280;70042;52.494;5.502;2023-08-08T01:18:03;101451.09;;;20.59;61.84
80678;BME280;70042;52.494;5.502;2023-08-08T01:20:31;101450.22;;;20.58;61.81
80678;BME280;70042;52.494;5.502;2023-08-08T01:23:23;101444.06;;;20.58;61.98
80678;BME280;70042;52.494;5.502;2023-08-08T01:25:49;101450.22;;;20.58;61.94
80678;BME280;70042;52.494;5.502;2023-08-08T01:28:20;101445.84;;;20.57;61.87
80678;BME280;70042;52.494;5.502;2023-08-08T01:30:45;101444.97;;;20.57;61.77
80678;BME280;70042;52.494;5.502;2023-08-08T01:33:11;101439.59;;;20.58;61.96
80678;BME280;70042;52.494;5.502;2023-08-08T01:35:44;101444.06;;;20.58;62.07
80678;BME280;70042;52.494;5.502;2023-08-08T01:38:17;101431.66;;;20.58;61.98
80678;BME280;70042;52.494;5.502;2023-08-08T01:40:44;101438.72;;;20.59;61.91
80678;BME280;70042;52.494;5.502;2023-08-08T01:43:11;101440.47;;;20.60;61.78
80678;BME280;70042;52.494;5.502;2023-08-08T01:45:37;101438.72;;;20.59;61.89
80678;BME280;70042;52.494;5.502;2023-08-08T01:48:10;101436.13;;;20.58;61.85
80678;BME280;70042;52.494;5.502;2023-08-08T01:50:38;101438.78;;;20.56;62.00
80678;BME280;70042;52.494;5.502;2023-08-08T01:53:04;101435.25;;;20.56;62.08
80678;BME280;70042;52.494;5.502;2023-08-08T01:55:30;101438.78;;;20.56;62.01
80678;BME280;70042;52.494;5.502;2023-08-08T01:57:55;101429.06;;;20.55;62.16
80678;BME280;70042;52.494;5.502;2023-08-08T02:00:21;101426.41;;;20.55;62.00
80678;BME280;70042;52.494;5.502;2023-08-08T02:02:47;101427.34;;;20.54;62.02
80678;BME280;70042;52.494;5.502;2023-08-08T02:05:12;101427.34;;;20.54;61.88
80678;BME280;70042;52.494;5.502;2023-08-08T02:07:38;101418.53;;;20.54;61.91
80678;BME280;70042;52.494;5.502;2023-08-08T02:10:03;101423.81;;;20.54;62.25
80678;BME280;70042;52.494;5.502;2023-08-08T02:12:29;101423.75;;;20.55;61.94
80678;BME280;70042;52.494;5.502;2023-08-08T02:14:56;101409.66;;;20.55;61.85
80678;BME280;70042;52.494;5.502;2023-08-08T02:17:21;101416.75;;;20.54;62.05
80678;BME280;70042;52.494;5.502;2023-08-08T02:19:47;101413.22;;;20.54;62.00
80678;BME280;70042;52.494;5.502;2023-08-08T02:22:12;101414.97;;;20.53;62.17
80678;BME280;70042;52.494;5.502;2023-08-08T02:24:38;101407.94;;;20.52;62.12
80678;BME280;70042;52.494;5.502;2023-08-08T02:27:03;101410.63;;;20.51;62.10
80678;BME280;70042;52.494;5.502;2023-08-08T02:29:29;101411.53;;;20.50;62.25
80678;BME280;70042;52.494;5.502;2023-08-08T02:31:55;101410.63;;;20.51;62.31
80678;BME280;70042;52.494;5.502;2023-08-08T02:34:20;101408.88;;;20.50;62.00
80678;BME280;70042;52.494;5.502;2023-08-08T02:36:46;101405.34;;;20.49;61.99
80678;BME280;70042;52.494;5.502;2023-08-08T02:39:11;101408.00;;;20.51;62.18
80678;BME280;70042;52.494;5.502;2023-08-08T02:41:43;101414.16;;;20.51;62.19
80678;BME280;70042;52.494;5.502;2023-08-08T02:44:08;101410.56;;;20.52;61.95
80678;BME280;70042;52.494;5.502;2023-08-08T02:46:33;101412.41;;;20.50;61.79
80678;BME280;70042;52.494;5.502;2023-08-08T02:48:59;101404.41;;;20.52;61.88
80678;BME280;70042;52.494;5.502;2023-08-08T02:51:24;101403.56;;;20.51;62.07
80678;BME280;70042;52.494;5.502;2023-08-08T02:53:50;101399.09;;;20.52;62.03
80678;BME280;70042;52.494;5.502;2023-08-08T02:56:15;101387.66;;;20.50;62.13
80678;BME280;70042;52.494;5.502;2023-08-08T02:58:40;101391.22;;;20.49;61.91
80678;BME280;70042;52.494;5.502;2023-08-08T03:01:06;101393.88;;;20.49;61.91
80678;BME280;70042;52.494;5.502;2023-08-08T03:03:31;101392.16;;;20.46;61.90
80678;BME280;70042;52.494;5.502;2023-08-08T03:05:56;101393.09;;;20.45;61.79
80678;BME280;70042;52.494;5.502;2023-08-08T03:08:22;101386.91;;;20.45;62.00
80678;BME280;70042;52.494;5.502;2023-08-08T03:10:47;101391.28;;;20.47;62.12
80678;BME280;70042;52.494;5.502;2023-08-08T03:13:13;101396.56;;;20.47;61.83
80678;BME280;70042;52.494;5.502;2023-08-08T03:15:38;101387.72;;;20.48;61.94
80678;BME280;70042;52.494;5.502;2023-08-08T03:18:04;101387.72;;;20.48;61.76
80678;BME280;70042;52.494;5.502;2023-08-08T03:20:29;101383.25;;;20.49;62.02
80678;BME280;70042;52.494;5.502;2023-08-08T03:22:55;101383.25;;;20.49;61.87
80678;BME280;70042;52.494;5.502;2023-08-08T03:25:20;101383.22;;;20.50;61.83
80678;BME280;70042;52.494;5.502;2023-08-08T03:27:46;101385.88;;;20.50;61.90
80678;BME280;70042;52.494;5.502;2023-08-08T03:30:11;101378.81;;;20.49;61.69
80678;BME280;70042;52.494;5.502;2023-08-08T03:32:37;101379.75;;;20.48;61.82
80678;BME280;70042;52.494;5.502;2023-08-08T03:35:03;101371.78;;;20.48;61.93
80678;BME280;70042;52.494;5.502;2023-08-08T03:37:29;101373.59;;;20.46;61.98
80678;BME280;70042;52.494;5.502;2023-08-08T03:39:55;101371.88;;;20.45;61.90
80678;BME280;70042;52.494;5.502;2023-08-08T03:42:20;101364.81;;;20.44;61.86
80678;BME280;70042;52.494;5.502;2023-08-08T03:44:45;101369.25;;;20.44;61.95
80678;BME280;70042;52.494;5.502;2023-08-08T03:47:11;101369.25;;;20.44;61.79
80678;BME280;70042;52.494;5.502;2023-08-08T03:49:36;101363.06;;;20.43;61.96
80678;BME280;70042;52.494;5.502;2023-08-08T03:52:01;101363.06;;;20.43;61.90
80678;BME280;70042;52.494;5.502;2023-08-08T03:54:27;101353.31;;;20.44;61.87
80678;BME280;70042;52.494;5.502;2023-08-08T03:56:52;101347.97;;;20.45;61.68
80678;BME280;70042;52.494;5.502;2023-08-08T03:59:18;101355.94;;;20.45;61.80
80678;BME280;70042;52.494;5.502;2023-08-08T04:01:43;101352.34;;;20.46;61.45
80678;BME280;70042;52.494;5.502;2023-08-08T04:04:08;101355.06;;;20.45;61.75
80678;BME280;70042;52.494;5.502;2023-08-08T04:06:34;101350.63;;;20.45;61.68
80678;BME280;70042;52.494;5.502;2023-08-08T04:08:59;101349.75;;;20.45;61.76
80678;BME280;70042;52.494;5.502;2023-08-08T04:11:26;101360.31;;;20.46;61.74
80678;BME280;70042;52.494;5.502;2023-08-08T04:13:51;101353.31;;;20.44;61.43
80678;BME280;70042;52.494;5.502;2023-08-08T04:16:17;101348.00;;;20.44;61.65
80678;BME280;70042;52.494;5.502;2023-08-08T04:18:42;101357.75;;;20.43;61.80
80678;BME280;70042;52.494;5.502;2023-08-08T04:21:08;101353.41;;;20.41;61.67
80678;BME280;70042;52.494;5.502;2023-08-08T04:23:33;101361.38;;;20.41;61.72
80678;BME280;70042;52.494;5.502;2023-08-08T04:25:58;101350.78;;;20.39;61.59
80678;BME280;70042;52.494;5.502;2023-08-08T04:28:24;101345.47;;;20.39;61.85
80678;BME280;70042;52.494;5.502;2023-08-08T04:30:49;101345.47;;;20.39;61.53
80678;BME280;70042;52.494;5.502;2023-08-08T04:33:15;101339.31;;;20.39;61.94
80678;BME280;70042;52.494;5.502;2023-08-08T04:35:40;101341.03;;;20.40;61.76
80678;BME280;70042;52.494;5.502;2023-08-08T04:38:06;101346.34;;;20.40;61.50
80678;BME280;70042;52.494;5.502;2023-08-08T04:40:31;101348.97;;;20.41;61.59
80678;BME280;70042;52.494;5.502;2023-08-08T04:42:56;101348.97;;;20.41;61.49
80678;BME280;70042;52.494;5.502;2023-08-08T04:45:22;101356.03;;;20.42;61.48
80678;BME280;70042;52.494;5.502;2023-08-08T04:47:47;101350.72;;;20.42;61.53
80678;BME280;70042;52.494;5.502;2023-08-08T04:50:13;101356.84;;;20.44;61.54
80678;BME280;70042;52.494;5.502;2023-08-08T04:52:38;101364.00;;;20.42;61.62
80678;BME280;70042;52.494;5.502;2023-08-08T04:55:04;101356.94;;;20.41;61.44
80678;BME280;70042;52.494;5.502;2023-08-08T04:57:30;101358.72;;;20.41;61.64
80678;BME280;70042;52.494;5.502;2023-08-08T04:59:56;101345.47;;;20.39;61.39
80678;BME280;70042;52.494;5.502;2023-08-08T05:02:21;101363.22;;;20.39;61.61
80678;BME280;70042;52.494;5.502;2023-08-08T05:04:47;101357.03;;;20.38;61.40
80678;BME280;70042;52.494;5.502;2023-08-08T05:07:12;101352.59;;;20.39;61.46
80678;BME280;70042;52.494;5.502;2023-08-08T05:09:38;101343.75;;;20.38;61.31
80678;BME280;70042;52.494;5.502;2023-08-08T05:12:04;101352.63;;;20.37;61.36
80678;BME280;70042;52.494;5.502;2023-08-08T05:14:29;101350.78;;;20.39;61.63
80678;BME280;70042;52.494;5.502;2023-08-08T05:16:55;101353.44;;;20.39;61.46
80678;BME280;70042;52.494;5.502;2023-08-08T05:19:20;101340.16;;;20.39;61.27
80678;BME280;70042;52.494;5.502;2023-08-08T05:21:46;101346.31;;;20.41;61.42
80678;BME280;70042;52.494;5.502;2023-08-08T05:24:11;101351.56;;;20.43;61.33
80678;BME280;70042;52.494;5.502;2023-08-08T05:26:37;101356.03;;;20.42;61.37
80678;BME280;70042;52.494;5.502;2023-08-08T05:29:02;101354.19;;;20.44;61.14
80678;BME280;70042;52.494;5.502;2023-08-08T05:31:27;101357.72;;;20.45;61.03
80678;BME280;70042;52.494;5.502;2023-08-08T05:33:53;101355.06;;;20.45;61.13
80678;BME280;70042;52.494;5.502;2023-08-08T05:36:18;101352.41;;;20.45;60.97
80678;BME280;70042;52.494;5.502;2023-08-08T05:38:44;101350.63;;;20.45;61.08
80678;BME280;70042;52.494;5.502;2023-08-08T05:41:09;101356.84;;;20.44;60.95
80678;BME280;70042;52.494;5.502;2023-08-08T05:43:34;101349.69;;;20.46;61.00
80678;BME280;70042;52.494;5.502;2023-08-08T05:46:00;101361.25;;;20.45;60.97
80678;BME280;70042;52.494;5.502;2023-08-08T05:48:26;101352.34;;;20.46;61.05
80678;BME280;70042;52.494;5.502;2023-08-08T05:50:51;101366.47;;;20.48;60.92
80678;BME280;70042;52.494;5.502;2023-08-08T05:53:17;101368.09;;;20.52;60.65
80678;BME280;70042;52.494;5.502;2023-08-08T05:55:42;101363.59;;;20.56;60.54
80678;BME280;70042;52.494;5.502;2023-08-08T05:58:08;101364.44;;;20.58;60.58
80678;BME280;70042;52.494;5.502;2023-08-08T06:00:33;101365.28;;;20.58;60.46
80678;BME280;70042;52.494;5.502;2023-08-08T06:02:59;101371.47;;;20.59;60.39
80678;BME280;70042;52.494;5.502;2023-08-08T06:05:25;101361.69;;;20.61;60.37
80678;BME280;70042;52.494;5.502;2023-08-08T06:07:50;101370.41;;;20.64;60.22
80678;BME280;70042;52.494;5.502;2023-08-08T06:10:16;101368.59;;;20.66;60.04
80678;BME280;70042;52.494;5.502;2023-08-08T06:12:42;101365.94;;;20.66;60.11
80678;BME280;70042;52.494;5.502;2023-08-08T06:15:10;101376.56;;;20.66;60.12
80678;BME280;70042;52.494;5.502;2023-08-08T06:17:36;101376.56;;;20.66;60.18
80678;BME280;70042;52.494;5.502;2023-08-08T06:20:01;101376.56;;;20.66;60.14
80678;BME280;70042;52.494;5.502;2023-08-08T06:22:27;101373.94;;;20.65;60.32
80678;BME280;70042;52.494;5.502;2023-08-08T06:24:52;101374.88;;;20.64;60.26
80678;BME280;70042;52.494;5.502;2023-08-08T06:27:17;101374.91;;;20.62;60.40
80678;BME280;70042;52.494;5.502;2023-08-08T06:29:43;101375.72;;;20.64;60.15
80678;BME280;70042;52.494;5.502;2023-08-08T06:32:08;101367.69;;;20.67;60.47
80678;BME280;70042;52.494;5.502;2023-08-08T06:34:34;101372.91;;;20.70;59.96
80678;BME280;70042;52.494;5.502;2023-08-08T06:37:00;101367.50;;;20.73;59.95
80678;BME280;70042;52.494;5.502;2023-08-08T06:39:25;101372.72;;;20.77;59.73
80678;BME280;70042;52.494;5.502;2023-08-08T06:41:51;101376.19;;;20.79;59.60
80678;BME280;70042;52.494;5.502;2023-08-08T06:44:16;101371.66;;;20.82;59.60
80678;BME280;70042;52.494;5.502;2023-08-08T06:46:42;101372.53;;;20.83;59.54
80678;BME280;70042;52.494;5.502;2023-08-08T06:49:07;101372.44;;;20.86;59.32
80678;BME280;70042;52.494;5.502;2023-08-08T06:51:34;101369.78;;;20.86;59.35
80678;BME280;70042;52.494;5.502;2023-08-08T06:53:59;101365.28;;;20.88;59.32
80678;BME280;70042;52.494;5.502;2023-08-08T06:56:25;101368.03;;;20.85;59.42
80678;BME280;70042;52.494;5.502;2023-08-08T06:58:54;101360.19;;;20.80;59.62
80678;BME280;70042;52.494;5.502;2023-08-08T07:01:19;101363.78;;;20.79;59.79
80678;BME280;70042;52.494;5.502;2023-08-08T07:03:45;101372.63;;;20.80;59.74
80678;BME280;70042;52.494;5.502;2023-08-08T07:06:12;101362.00;;;20.80;59.54
80678;BME280;70042;52.494;5.502;2023-08-08T07:08:38;101369.91;;;20.81;59.59
80678;BME280;70042;52.494;5.502;2023-08-08T07:11:04;101367.31;;;20.80;59.81
80678;BME280;70042;52.494;5.502;2023-08-08T07:13:31;101369.03;;;20.81;59.86
80678;BME280;70042;52.494;5.502;2023-08-08T07:15:56;101367.31;;;20.80;59.80
80678;BME280;70042;52.494;5.502;2023-08-08T07:18:21;101362.00;;;20.80;59.78
80678;BME280;70042;52.494;5.502;2023-08-08T07:20:47;101360.06;;;20.85;59.40
80678;BME280;70042;52.494;5.502;2023-08-08T07:23:12;101361.81;;;20.86;59.56
80678;BME280;70042;52.494;5.502;2023-08-08T07:25:38;101360.03;;;20.86;59.64
80678;BME280;70042;52.494;5.502;2023-08-08T07:28:03;101364.41;;;20.87;59.37
80678;BME280;70042;52.494;5.502;2023-08-08T07:30:28;101359.16;;;20.86;59.36
80678;BME280;70042;52.494;5.502;2023-08-08T07:32:54;101366.25;;;20.85;59.66
80678;BME280;70042;52.494;5.502;2023-08-08T07:35:19;101354.66;;;20.88;59.64
80678;BME280;70042;52.494;5.502;2023-08-08T07:37:45;101351.00;;;20.92;59.52
80678;BME280;70042;52.494;5.502;2023-08-08T07:40:17;101358.03;;;20.93;59.22
80678;BME280;70042;52.494;5.502;2023-08-08T07:42:44;101345.59;;;20.95;59.41
80678;BME280;70042;52.494;5.502;2023-08-08T07:45:10;101350.91;;;20.95;59.17
80678;BME280;70042;52.494;5.502;2023-08-08T07:47:35;101358.88;;;20.95;59.10
80678;BME280;70042;52.494;5.502;2023-08-08T07:50:01;101348.19;;;20.96;59.15
80678;BME280;70042;52.494;5.502;2023-08-08T07:52:27;101350.81;;;20.98;58.91
80678;BME280;70042;52.494;5.502;2023-08-08T07:54:53;101353.59;;;20.93;58.99
80678;BME280;70042;52.494;5.502;2023-08-08T07:57:18;101358.97;;;20.92;59.10
80678;BME280;70042;52.494;5.502;2023-08-08T07:59:43;101346.56;;;20.92;59.43
80678;BME280;70042;52.494;5.502;2023-08-08T08:02:09;101350.13;;;20.91;59.34
80678;BME280;70042;52.494;5.502;2023-08-08T08:04:34;101355.44;;;20.91;59.49
80678;BME280;70042;52.494;5.502;2023-08-08T08:07:00;101354.66;;;20.88;59.26
80678;BME280;70042;52.494;5.502;2023-08-08T08:09:26;101350.25;;;20.87;59.49
80678;BME280;70042;52.494;5.502;2023-08-08T08:11:51;101358.19;;;20.88;59.40
80678;BME280;70042;52.494;5.502;2023-08-08T08:14:16;101353.59;;;20.93;59.29
80678;BME280;70042;52.494;5.502;2023-08-08T08:16:42;101339.38;;;20.96;58.99
80678;BME280;70042;52.494;5.502;2023-08-08T08:19:07;101348.19;;;20.96;59.10
80678;BME280;70042;52.494;5.502;2023-08-08T08:21:32;101348.09;;;20.99;59.04
80678;BME280;70042;52.494;5.502;2023-08-08T08:23:58;101348.00;;;21.02;59.00
80678;BME280;70042;52.494;5.502;2023-08-08T08:26:23;101340.81;;;21.06;59.15
80678;BME280;70042;52.494;5.502;2023-08-08T08:28:48;101345.22;;;21.07;58.89
80678;BME280;70042;52.494;5.502;2023-08-08T08:31:14;101335.44;;;21.09;58.91
80678;BME280;70042;52.494;5.502;2023-08-08T08:33:39;101338.00;;;21.12;58.63
80678;BME280;70042;52.494;5.502;2023-08-08T08:36:05;101344.19;;;21.12;58.77
80678;BME280;70042;52.494;5.502;2023-08-08T08:38:30;101348.63;;;21.12;58.56
80678;BME280;70042;52.494;5.502;2023-08-08T08:40:56;101345.97;;;21.12;58.71
80678;BME280;70042;52.494;5.502;2023-08-08T08:43:21;101350.28;;;21.16;58.58
80678;BME280;70042;52.494;5.502;2023-08-08T08:45:50;101354.63;;;21.18;58.55
80678;BME280;70042;52.494;5.502;2023-08-08T08:48:17;101345.78;;;21.18;58.73
80678;BME280;70042;52.494;5.502;2023-08-08T08:50:45;101350.28;;;21.16;59.09
80678;BME280;70042;52.494;5.502;2023-08-08T08:53:12;101355.50;;;21.19;58.45
80678;BME280;70042;52.494;5.502;2023-08-08T08:55:39;101356.41;;;21.18;58.75
80678;BME280;70042;52.494;5.502;2023-08-08T08:58:05;101351.09;;;21.18;58.41
80678;BME280;70042;52.494;5.502;2023-08-08T09:00:31;101359.03;;;21.19;58.52
80678;BME280;70042;52.494;5.502;2023-08-08T09:02:56;101357.34;;;21.17;58.75
80678;BME280;70042;52.494;5.502;2023-08-08T09:05:25;101364.38;;;21.18;58.60
80678;BME280;70042;52.494;5.502;2023-08-08T09:07:50;101360.91;;;21.16;58.39
80678;BME280;70042;52.494;5.502;2023-08-08T09:10:17;101352.94;;;21.16;58.54
80678;BME280;70042;52.494;5.502;2023-08-08T09:16:08;101353.00;;;21.14;58.51
80678;BME280;70042;52.494;5.502;2023-08-08T09:25:14;101365.34;;;21.15;58.70
80678;BME280;70042;52.494;5.502;2023-08-08T09:27:51;101360.97;;;21.14;58.59
80678;BME280;70042;52.494;5.502;2023-08-08T09:30:18;101353.84;;;21.15;58.58
80678;BME280;70042;52.494;5.502;2023-08-08T09:32:44;101364.47;;;21.15;58.91
80678;BME280;70042;52.494;5.502;2023-08-08T09:35:10;101357.34;;;21.17;58.51
80678;BME280;70042;52.494;5.502;2023-08-08T09:37:37;101364.44;;;21.16;58.84
80678;BME280;70042;52.494;5.502;2023-08-08T09:40:04;101359.16;;;21.15;58.57
80678;BME280;70042;52.494;5.502;2023-08-08T09:42:41;101357.38;;;21.15;58.74
80678;BME280;70042;52.494;5.502;2023-08-08T09:45:08;101367.91;;;21.18;58.62
80678;BME280;70042;52.494;5.502;2023-08-08T09:47:33;101364.44;;;21.16;58.25
80678;BME280;70042;52.494;5.502;2023-08-08T09:50:00;101364.38;;;21.18;58.34
80678;BME280;70042;52.494;5.502;2023-08-08T09:52:28;101376.81;;;21.17;58.39
80678;BME280;70042;52.494;5.502;2023-08-08T09:54:54;101380.31;;;21.18;58.23
80678;BME280;70042;52.494;5.502;2023-08-08T09:57:21;101362.66;;;21.17;58.45
80678;BME280;70042;52.494;5.502;2023-08-08T09:59:47;101382.13;;;21.17;58.36
80678;BME280;70042;52.494;5.502;2023-08-08T10:02:14;101374.16;;;21.17;58.47
80678;BME280;70042;52.494;5.502;2023-08-08T10:04:41;101376.75;;;21.19;58.42
80678;BME280;70042;52.494;5.502;2023-08-08T10:07:07;101371.44;;;21.19;58.58
80678;BME280;70042;52.494;5.502;2023-08-08T10:09:33;101375.84;;;21.20;58.44
80678;BME280;70042;52.494;5.502;2023-08-08T10:11:59;101381.97;;;21.22;58.35
80678;BME280;70042;52.494;5.502;2023-08-08T10:14:35;101373.13;;;21.21;58.45
80678;BME280;70042;52.494;5.502;2023-08-08T10:17:06;101374.84;;;21.24;58.64
80678;BME280;70042;52.494;5.502;2023-08-08T10:19:32;101378.22;;;21.29;58.60
80678;BME280;70042;52.494;5.502;2023-08-08T10:22:03;101374.66;;;21.30;58.56
80678;BME280;70042;52.494;5.502;2023-08-08T10:24:33;101369.25;;;21.33;58.38
80678;BME280;70042;52.494;5.502;2023-08-08T10:27:00;101369.25;;;21.33;58.01
80678;BME280;70042;52.494;5.502;2023-08-08T10:29:28;101370.09;;;21.34;58.25
80678;BME280;70042;52.494;5.502;2023-08-08T10:32:05;101367.47;;;21.32;58.16
80678;BME280;70042;52.494;5.502;2023-08-08T10:37:12;101366.47;;;21.36;58.34
80678;BME280;70042;52.494;5.502;2023-08-08T10:39:38;101372.56;;;21.40;58.33
80678;BME280;70042;52.494;5.502;2023-08-08T10:42:18;101370.81;;;21.39;58.19
80678;BME280;70042;52.494;5.502;2023-08-08T10:44:43;101364.53;;;21.41;58.21
80678;BME280;70042;52.494;5.502;2023-08-08T10:47:10;101379.66;;;21.39;58.34
80678;BME280;70042;52.494;5.502;2023-08-08T10:49:36;101389.44;;;21.39;58.08
80678;BME280;70042;52.494;5.502;2023-08-08T10:52:03;101382.25;;;21.41;58.02
80678;BME280;70042;52.494;5.502;2023-08-08T10:54:29;101385.88;;;21.40;58.00
80678;BME280;70042;52.494;5.502;2023-08-08T10:56:58;101386.69;;;21.40;57.99
80678;BME280;70042;52.494;5.502;2023-08-08T10:59:26;101385.00;;;21.39;58.06
80678;BME280;70042;52.494;5.502;2023-08-08T11:01:53;101384.88;;;21.42;57.74
80678;BME280;70042;52.494;5.502;2023-08-08T11:04:23;101383.88;;;21.46;57.70
80678;BME280;70042;52.494;5.502;2023-08-08T11:06:49;101382.94;;;21.47;57.87
80678;BME280;70042;52.494;5.502;2023-08-08T11:09:16;101382.94;;;21.47;57.94
80678;BME280;70042;52.494;5.502;2023-08-08T11:11:44;101383.00;;;21.46;57.85
80678;BME280;70042;52.494;5.502;2023-08-08T11:14:17;101379.38;;;21.48;57.95
80678;BME280;70042;52.494;5.502;2023-08-08T11:16:44;101391.84;;;21.46;57.93
80678;BME280;70042;52.494;5.502;2023-08-08T11:19:11;101386.47;;;21.48;57.79
80678;BME280;70042;52.494;5.502;2023-08-08T11:21:41;101393.47;;;21.50;57.99
80678;BME280;70042;52.494;5.502;2023-08-08T11:24:08;101394.41;;;21.49;57.75
80678;BME280;70042;52.494;5.502;2023-08-08T11:26:35;101404.84;;;21.55;57.73
80678;BME280;70042;52.494;5.502;2023-08-08T11:29:01;101390.81;;;21.50;58.06
80678;BME280;70042;52.494;5.502;2023-08-08T11:31:28;101392.59;;;21.50;57.86
80678;BME280;70042;52.494;5.502;2023-08-08T11:33:55;101387.25;;;21.51;58.04
80678;BME280;70042;52.494;5.502;2023-08-08T11:36:22;101387.06;;;21.56;57.82
80678;BME280;70042;52.494;5.502;2023-08-08T11:38:49;101381.75;;;21.56;57.76
80678;BME280;70042;52.494;5.502;2023-08-08T11:41:16;101379.16;;;21.54;57.40
80678;BME280;70042;52.494;5.502;2023-08-08T11:43:43;101368.53;;;21.54;57.65
80678;BME280;70042;52.494;5.502;2023-08-08T11:46:13;101370.22;;;21.57;57.47
80678;BME280;70042;52.494;5.502;2023-08-08T11:48:40;101375.53;;;21.57;57.70
80678;BME280;70042;52.494;5.502;2023-08-08T11:51:06;101370.19;;;21.58;57.58
80678;BME280;70042;52.494;5.502;2023-08-08T11:53:32;101381.63;;;21.60;57.55
80678;BME280;70042;52.494;5.502;2023-08-08T11:56:02;101375.41;;;21.61;57.71
80678;BME280;70042;52.494;5.502;2023-08-08T11:58:29;101381.53;;;21.63;57.58
80678;BME280;70042;52.494;5.502;2023-08-08T12:00:56;101377.22;;;21.59;57.66
80678;BME280;70042;52.494;5.502;2023-08-08T12:03:40;101373.75;;;21.57;57.50
80678;BME280;70042;52.494;5.502;2023-08-08T12:06:13;101367.53;;;21.58;57.31
80678;BME280;70042;52.494;5.502;2023-08-08T12:08:41;101373.66;;;21.60;57.39
80678;BME280;70042;52.494;5.502;2023-08-08T12:11:08;101371.78;;;21.62;57.76
80678;BME280;70042;52.494;5.502;2023-08-08T12:13:33;101372.63;;;21.64;57.57
80678;BME280;70042;52.494;5.502;2023-08-08T12:16:04;101385.84;;;21.67;57.37
80678;BME280;70042;52.494;5.502;2023-08-08T12:18:32;101373.44;;;21.66;57.10
80678;BME280;70042;52.494;5.502;2023-08-08T12:20:59;101388.41;;;21.69;57.26
80678;BME280;70042;52.494;5.502;2023-08-08T12:23:26;101376.84;;;21.71;57.17
80678;BME280;70042;52.494;5.502;2023-08-08T12:25:52;101385.72;;;21.70;57.16
80678;BME280;70042;52.494;5.502;2023-08-08T12:28:18;101382.16;;;21.71;56.95
80678;BME280;70042;52.494;5.502;2023-08-08T12:30:43;101383.00;;;21.72;56.92
80678;BME280;70042;52.494;5.502;2023-08-08T12:33:08;101384.75;;;21.73;56.64
80678;BME280;70042;52.494;5.502;2023-08-08T12:35:34;101380.41;;;21.70;56.89
80678;BME280;70042;52.494;5.502;2023-08-08T12:37:59;101381.28;;;21.71;56.80
80678;BME280;70042;52.494;5.502;2023-08-08T12:40:24;101382.97;;;21.73;57.31
80678;BME280;70042;52.494;5.502;2023-08-08T12:42:50;101387.47;;;21.71;57.33
80678;BME280;70042;52.494;5.502;2023-08-08T12:45:16;101393.63;;;21.72;57.57
80678;BME280;70042;52.494;5.502;2023-08-08T12:47:43;101391.81;;;21.74;57.63
80678;BME280;70042;52.494;5.502;2023-08-08T12:50:09;101388.28;;;21.73;57.42
80678;BME280;70042;52.494;5.502;2023-08-08T12:52:34;101400.59;;;21.76;57.19
80678;BME280;70042;52.494;5.502;2023-08-08T12:55:00;101402.28;;;21.78;56.95
80678;BME280;70042;52.494;5.502;2023-08-08T12:57:25;101395.25;;;21.77;57.19
80678;BME280;70042;52.494;5.502;2023-08-08T12:59:51;101393.44;;;21.78;57.09